Time;durP1;ratioP1;P1;durP2;ratioP2;P2;SDS_P1;SDS_P2;PMS_P1;PMS_P2;Temp;Humidity;BMP_temperature;BMP_pressure;BME280_temperature;BME280_humidity;BME280_pressure;Samples;Min_cycle;Max_cycle;Signal;HPM_P1;HPM_P2
2022/06/26 00:00:19;;;;;;;;;3.00;1.00;;;;;18.96;58.77;101196.50;2459852;27;45185;-86
2022/06/26 00:01:30;;;;;;;;;3.00;1.50;;;;;18.93;59.19;101190.50;2456706;27;46120;-87
2022/06/26 00:02:40;;;;;;;;;2.00;1.50;;;;;18.93;59.32;101195.81;2450270;27;45828;-88
2022/06/26 00:03:50;;;;;;;;;1.00;1.00;;;;;18.93;59.08;101196.69;2447508;28;46660;-87
2022/06/26 00:05:02;;;;;;;;;1.75;1.00;;;;;18.94;58.93;101208.22;2441224;28;45463;-87
2022/06/26 00:06:13;;;;;;;;;1.75;1.50;;;;;18.93;59.00;101202.00;2453683;27;45554;-88
2022/06/26 00:07:24;;;;;;;;;5.00;2.00;;;;;18.91;58.87;101192.41;2459404;27;45423;-88
2022/06/26 00:08:34;;;;;;;;;1.75;1.00;;;;;18.93;58.86;101198.50;2457113;27;46253;-87
2022/06/26 00:09:44;;;;;;;;;2.00;1.00;;;;;18.92;59.09;101199.44;2456450;27;45294;-88
2022/06/26 00:10:55;;;;;;;;;2.00;2.00;;;;;18.88;59.23;101194.31;2450649;27;46363;-88
2022/06/26 00:12:06;;;;;;;;;1.00;1.00;;;;;18.89;59.30;101195.16;2450128;28;45157;-88
2022/06/26 00:13:17;;;;;;;;;1.00;1.00;;;;;18.87;59.30;101199.72;2442772;28;47285;-86
2022/06/26 00:14:27;;;;;;;;;1.00;1.00;;;;;18.86;59.31;101200.69;2449047;27;45214;-91
2022/06/26 00:15:39;;;;;;;;;1.25;1.25;;;;;18.86;59.25;101203.34;2446800;28;48737;-93
2022/06/26 00:16:49;;;;;;;;;1.00;1.00;;;;;18.86;59.42;101198.88;2443448;27;44662;-91
2022/06/26 00:17:59;;;;;;;;;1.25;1.25;;;;;18.86;59.32;101206.88;2450259;27;47439;-91
2022/06/26 00:19:10;;;;;;;;;1.00;1.00;;;;;18.85;59.28;101204.28;2443051;28;45173;-91
2022/06/26 00:20:21;;;;;;;;;1.50;1.25;;;;;18.86;59.31;101201.53;2450065;28;45257;-91
2022/06/26 00:21:31;;;;;;;;;1.00;1.00;;;;;18.85;59.16;101199.81;2454763;27;45529;-92
2022/06/26 00:22:41;;;;;;;;;1.75;1.75;;;;;18.84;59.46;101197.25;2449781;28;47238;-90
2022/06/26 00:23:52;;;;;;;;;1.25;1.00;;;;;18.84;59.21;101203.41;2450526;28;44760;-91
2022/06/26 00:25:03;;;;;;;;;2.25;1.00;;;;;18.83;59.43;101199.06;2450771;27;48142;-92
2022/06/26 00:26:13;;;;;;;;;2.50;1.00;;;;;18.78;59.57;101183.38;2458225;27;45343;-91
2022/06/26 00:27:23;;;;;;;;;2.00;1.50;;;;;18.80;59.46;101195.72;2450016;27;45570;-89
2022/06/26 00:28:34;;;;;;;;;3.00;1.00;;;;;18.80;59.46;101193.03;2450330;27;45367;-91
2022/06/26 00:29:44;;;;;;;;;2.25;1.75;;;;;18.78;59.24;101193.16;2443740;28;47252;-93
2022/06/26 00:30:55;;;;;;;;;1.00;1.00;;;;;18.78;59.30;101187.81;2435693;28;45260;-92
2022/06/26 00:32:06;;;;;;;;;3.25;1.00;;;;;18.76;59.35;101189.72;2444318;27;47389;-93
2022/06/26 00:33:16;;;;;;;;;1.75;1.75;;;;;18.73;59.25;101179.25;2454062;27;45243;-91
2022/06/26 00:34:27;;;;;;;;;1.00;1.00;;;;;18.73;59.55;101177.47;2450075;27;47587;-92
2022/06/26 00:35:38;;;;;;;;;1.00;1.00;;;;;18.72;59.48;101182.84;2452891;27;45252;-93
2022/06/26 00:36:48;;;;;;;;;1.75;1.75;;;;;18.71;59.48;101181.16;2458514;27;47046;-91
2022/06/26 00:37:58;;;;;;;;;3.00;1.00;;;;;18.70;59.63;101184.75;2450465;27;45236;-94
2022/06/26 00:39:09;;;;;;;;;3.00;3.00;;;;;18.66;59.49;101179.66;2443074;28;47113;-93
2022/06/26 00:40:19;;;;;;;;;1.00;1.00;;;;;18.67;59.27;101186.66;2442690;28;45273;-93
2022/06/26 00:41:30;;;;;;;;;1.00;1.00;;;;;18.65;59.49;101180.59;2444562;28;48079;-92
2022/06/26 00:42:41;;;;;;;;;1.00;1.00;;;;;18.65;59.88;101183.25;2452138;28;45291;-92
2022/06/26 00:43:51;;;;;;;;;2.00;2.00;;;;;18.65;59.44;101182.38;2461385;27;46986;-90
2022/06/26 00:45:03;;;;;;;;;1.75;1.00;;;;;18.64;59.62;101184.19;2460030;27;45595;-89
2022/06/26 00:46:14;;;;;;;;;2.75;2.00;;;;;18.62;59.40;101183.44;2460591;27;47546;-88
2022/06/26 00:47:24;;;;;;;;;4.50;2.00;;;;;18.62;59.87;101183.44;2453507;27;45420;-88
2022/06/26 00:48:35;;;;;;;;;1.75;1.75;;;;;18.60;59.43;101182.66;2461316;27;47198;-89
2022/06/26 00:49:45;;;;;;;;;1.50;1.50;;;;;18.58;59.52;101181.03;2453442;27;45240;-88
2022/06/26 00:50:55;;;;;;;;;2.75;1.75;;;;;18.57;59.72;101176.69;2451484;27;47270;-89
2022/06/26 00:52:06;;;;;;;;;1.50;1.50;;;;;18.57;59.86;101184.66;2444595;28;45264;-90
2022/06/26 00:53:18;;;;;;;;;2.00;1.00;;;;;18.57;59.82;101193.50;2453384;27;46942;-88
2022/06/26 00:54:28;;;;;;;;;1.75;1.75;;;;;18.56;59.77;101194.44;2462071;27;44606;-87
2022/06/26 00:55:39;;;;;;;;;3.50;2.00;;;;;18.56;59.64;101199.78;2453177;27;46408;-88
2022/06/26 00:56:50;;;;;;;;;2.00;2.00;;;;;18.57;59.83;101201.47;2452430;27;44748;-85
2022/06/26 00:58:01;;;;;;;;;3.50;1.25;;;;;18.59;59.52;101199.59;2458895;27;47027;-86
2022/06/26 00:59:13;;;;;;;;;2.25;1.50;;;;;18.60;59.92;101203.09;2451797;28;44817;-89
2022/06/26 01:00:23;;;;;;;;;3.50;2.00;;;;;18.60;60.00;101201.28;2461103;27;48094;-90
2022/06/26 01:01:34;;;;;;;;;2.25;2.00;;;;;18.61;59.83;101203.03;2458516;27;45250;-90
2022/06/26 01:02:44;;;;;;;;;1.00;1.00;;;;;18.60;59.68;101203.09;2451327;28;48073;-90
2022/06/26 01:03:55;;;;;;;;;3.00;1.50;;;;;18.61;59.76;101204.81;2444635;28;44810;-89
2022/06/26 01:05:06;;;;;;;;;1.00;1.00;;;;;18.60;59.59;101195.97;2448814;28;45647;-90
2022/06/26 01:06:17;;;;;;;;;3.25;2.75;;;;;18.60;59.31;101193.31;2443678;27;44660;-91
2022/06/26 01:07:28;;;;;;;;;1.00;1.00;;;;;18.58;59.37;101189.88;2437045;28;47526;-88
2022/06/26 01:08:38;;;;;;;;;4.00;2.00;;;;;18.57;59.45;101190.00;2454207;27;45141;-88
2022/06/26 01:09:49;;;;;;;;;2.50;2.50;;;;;18.55;59.53;101195.38;2453306;27;47923;-88
2022/06/26 01:11:00;;;;;;;;;2.00;2.00;;;;;18.56;59.69;101194.44;2451447;28;45368;-87
2022/06/26 01:12:10;;;;;;;;;2.25;2.00;;;;;18.52;59.59;101190.28;2447544;28;48176;-88
2022/06/26 01:13:21;;;;;;;;;2.00;2.00;;;;;18.52;59.26;101187.63;2451320;28;45460;-88
2022/06/26 01:14:31;;;;;;;;;1.75;1.00;;;;;18.50;59.42;101193.00;2454096;27;46241;-87
2022/06/26 01:15:42;;;;;;;;;1.50;1.50;;;;;18.48;59.49;101192.25;2451337;27;45363;-85
2022/06/26 01:16:53;;;;;;;;;1.50;1.00;;;;;18.51;59.83;101201.84;2451387;27;45434;-85
2022/06/26 01:18:04;;;;;;;;;1.75;1.75;;;;;18.52;59.71;101211.56;2451581;27;44789;-89
2022/06/26 01:19:16;;;;;;;;;2.75;2.00;;;;;18.53;59.88;101207.94;2451484;28;45472;-87
2022/06/26 01:20:27;;;;;;;;;1.75;1.75;;;;;18.52;59.10;101208.91;2452166;28;45441;-87
2022/06/26 01:21:37;;;;;;;;;3.00;1.50;;;;;18.53;59.57;101207.94;2461145;27;46999;-86
2022/06/26 01:23:06;;;;;;;;;2.00;2.00;;;;;18.51;59.25;101209.84;2458903;27;44632;-86
2022/06/26 01:24:17;;;;;;;;;2.00;2.00;;;;;18.51;59.23;101209.84;2453413;27;46423;-84
2022/06/26 01:25:43;;;;;;;;;3.00;1.00;;;;;18.50;59.36;101210.78;2460774;27;44611;-84
2022/06/26 01:26:53;;;;;;;;;2.00;2.00;;;;;18.49;59.84;101203.75;2451317;27;48097;-84
2022/06/26 01:28:04;;;;;;;;;3.50;2.25;;;;;18.49;59.54;101203.75;2443310;28;44752;-85
2022/06/26 01:29:14;;;;;;;;;1.75;1.75;;;;;18.47;59.66;101201.16;2451512;28;46293;-86
2022/06/26 01:30:25;;;;;;;;;3.50;2.50;;;;;18.47;59.07;101209.16;2452115;27;45155;-84
2022/06/26 01:31:36;;;;;;;;;1.75;1.75;;;;;18.47;59.47;101205.66;2450916;28;46212;-84
2022/06/26 01:32:46;;;;;;;;;2.00;1.25;;;;;18.43;59.30;101211.16;2451622;28;45358;-84
2022/06/26 01:33:57;;;;;;;;;1.00;1.00;;;;;18.44;59.25;101206.69;2455126;27;45420;-84
2022/06/26 01:35:07;;;;;;;;;2.00;1.75;;;;;18.42;59.18;101209.41;2459846;27;45235;-84
2022/06/26 01:36:17;;;;;;;;;2.25;1.00;;;;;18.42;60.00;101209.41;2451500;28;45343;-90
2022/06/26 01:37:28;;;;;;;;;2.75;1.50;;;;;18.40;59.58;101211.31;2452026;27;44779;-91
2022/06/26 01:38:38;;;;;;;;;5.00;2.00;;;;;18.38;59.45;101207.91;2444901;28;48222;-91
2022/06/26 01:39:49;;;;;;;;;2.00;2.00;;;;;18.39;59.35;101211.44;2442499;28;46174;-90
2022/06/26 01:41:00;;;;;;;;;2.00;2.00;;;;;18.38;59.75;101218.53;2443765;28;47145;-92
2022/06/26 01:42:10;;;;;;;;;3.00;2.00;;;;;18.37;59.85;101222.13;2441519;28;45300;-90
2022/06/26 01:43:32;;;;;;;;;2.25;2.25;;;;;18.37;59.25;101222.13;2441675;28;47169;-91
2022/06/26 01:44:42;;;;;;;;;2.00;2.00;;;;;18.37;59.47;101216.81;2441656;28;45319;-91
2022/06/26 01:45:54;;;;;;;;;2.00;2.00;;;;;18.39;59.62;101230.91;2441773;28;47992;-91
2022/06/26 01:47:04;;;;;;;;;1.25;1.25;;;;;18.36;59.73;101220.44;2451773;28;45459;-92
2022/06/26 01:48:16;;;;;;;;;2.75;2.00;;;;;18.36;59.41;101225.75;2451336;28;46903;-91
2022/06/26 01:49:26;;;;;;;;;4.00;1.00;;;;;18.35;59.42;101220.53;2441860;28;44636;-92
2022/06/26 01:50:37;;;;;;;;;2.00;2.00;;;;;18.33;59.45;101217.94;2440889;28;46975;-87
2022/06/26 01:51:47;;;;;;;;;1.00;1.00;;;;;18.31;59.26;101222.50;2453701;27;45255;-87
2022/06/26 01:52:57;;;;;;;;;2.00;2.00;;;;;18.29;59.43;101224.41;2460960;27;46662;-89
2022/06/26 01:54:08;;;;;;;;;1.00;1.00;;;;;18.28;59.78;101222.69;2458605;27;45503;-90
2022/06/26 01:55:18;;;;;;;;;2.50;2.00;;;;;18.25;59.58;101215.75;2450901;27;46223;-84
2022/06/26 01:56:29;;;;;;;;;1.00;1.00;;;;;18.28;59.58;101222.69;2451551;28;44677;-83
2022/06/26 01:57:39;;;;;;;;;2.50;2.00;;;;;18.27;59.55;101213.00;2452892;27;45412;-84
2022/06/26 01:58:50;;;;;;;;;2.00;1.00;;;;;18.27;59.56;101215.66;2460504;27;45378;-83
2022/06/26 02:00:00;;;;;;;;;3.50;2.00;;;;;18.25;59.51;101215.75;2456488;27;45443;-84
2022/06/26 02:01:11;;;;;;;;;3.75;1.00;;;;;18.25;59.51;101215.75;2451729;27;45125;-84
2022/06/26 02:02:21;;;;;;;;;1.00;1.00;;;;;18.27;59.92;101231.63;2458274;27;47031;-83
2022/06/26 02:03:31;;;;;;;;;1.50;1.50;;;;;18.26;59.91;101232.56;2455966;27;44792;-84
2022/06/26 02:04:42;;;;;;;;;4.00;2.00;;;;;18.25;59.39;101228.22;2451802;27;45401;-84
2022/06/26 02:05:52;;;;;;;;;2.50;2.00;;;;;18.24;59.70;101229.13;2450770;27;45432;-84
2022/06/26 02:07:03;;;;;;;;;3.25;2.00;;;;;18.22;59.85;101219.44;2442014;28;45292;-85
2022/06/26 02:08:13;;;;;;;;;3.00;2.00;;;;;18.21;59.29;101212.41;2448809;28;45418;-85
2022/06/26 02:13:53;;;;;;;;;3.00;2.50;;;;;18.19;59.56;101206.34;2461898;27;44760;-91
2022/06/26 02:15:03;;;;;;;;;1.00;1.00;;;;;18.19;59.58;101205.44;2453765;27;47206;-91
2022/06/26 02:16:20;;;;;;;;;6.50;2.00;;;;;18.18;59.32;101217.88;2444116;28;45279;-92
2022/06/26 02:17:31;;;;;;;;;2.75;1.00;;;;;18.18;59.41;101211.69;2451239;28;45328;-85
2022/06/26 02:18:44;;;;;;;;;3.25;2.00;;;;;18.16;59.66;101211.78;2451541;27;45344;-84
2022/06/26 02:19:54;;;;;;;;;2.50;2.00;;;;;18.17;59.97;101216.19;2463965;27;47253;-84
2022/06/26 02:21:07;;;;;;;;;3.75;2.00;;;;;18.17;59.72;101216.19;2460483;27;45365;-84
2022/06/26 02:22:17;;;;;;;;;3.75;3.00;;;;;18.17;59.52;101221.50;2450864;28;47557;-84
2022/06/26 02:23:27;;;;;;;;;3.00;3.00;;;;;18.16;59.35;101225.09;2448522;27;45258;-84
2022/06/26 02:24:41;;;;;;;;;3.00;3.00;;;;;18.15;59.12;101222.53;2444487;28;45203;-84
2022/06/26 02:25:52;;;;;;;;;2.00;2.00;;;;;18.15;59.43;101230.50;2460783;27;45368;-85
2022/06/26 02:27:03;;;;;;;;;3.00;2.00;;;;;18.14;59.34;101228.78;2458475;27;46153;-85
2022/06/26 02:28:13;;;;;;;;;1.00;1.00;;;;;18.13;59.31;101235.91;2457650;27;45576;-85
2022/06/26 02:29:24;;;;;;;;;7.50;2.00;;;;;18.12;59.26;101234.19;2469460;27;47169;-85
2022/06/26 02:30:35;;;;;;;;;2.00;2.00;;;;;18.11;59.66;101235.13;2449375;27;45350;-85
2022/06/26 02:31:45;;;;;;;;;3.50;2.00;;;;;18.13;59.21;101232.38;2442969;28;46330;-85
2022/06/26 02:32:56;;;;;;;;;2.25;1.00;;;;;18.14;59.67;101231.44;2450821;27;45875;-84
2022/06/26 02:34:07;;;;;;;;;2.00;2.00;;;;;18.13;59.71;101219.06;2460625;27;47403;-86
2022/06/26 02:35:17;;;;;;;;;2.50;2.00;;;;;18.10;59.62;101212.13;2450720;28;46674;-86
2022/06/26 02:36:28;;;;;;;;;2.00;2.00;;;;;18.08;59.47;101206.03;2448196;28;46413;-86
2022/06/26 02:37:38;;;;;;;;;3.75;2.25;;;;;18.09;59.64;101210.44;2441479;28;45188;-86
2022/06/26 02:38:48;;;;;;;;;3.25;2.25;;;;;18.09;59.49;101218.41;2445453;28;46554;-86
2022/06/26 02:39:59;;;;;;;;;2.00;2.00;;;;;18.08;59.58;101219.34;2451459;27;44665;-84
2022/06/26 02:41:09;;;;;;;;;3.00;2.00;;;;;18.08;59.49;101216.69;2451492;27;45283;-86
2022/06/26 02:42:19;;;;;;;;;2.00;2.00;;;;;18.08;59.65;101211.38;2451480;27;45234;-87
2022/06/26 02:43:30;;;;;;;;;3.75;2.75;;;;;18.07;59.60;101215.84;2451408;27;45277;-87
2022/06/26 02:44:40;;;;;;;;;4.00;2.25;;;;;18.10;59.56;101213.00;2451584;27;45399;-86
2022/06/26 02:45:51;;;;;;;;;2.00;2.00;;;;;18.07;59.45;101209.66;2451115;27;46328;-87
2022/06/26 02:47:02;;;;;;;;;2.00;2.00;;;;;18.09;59.45;101213.09;2457651;27;45259;-87
2022/06/26 02:48:12;;;;;;;;;3.00;3.00;;;;;18.08;59.72;101212.22;2450558;27;47063;-86
2022/06/26 02:49:23;;;;;;;;;2.00;1.75;;;;;18.09;59.58;101208.63;2453262;27;45363;-85
2022/06/26 02:50:33;;;;;;;;;3.00;2.50;;;;;18.11;59.91;101205.88;2457917;27;45461;-85
2022/06/26 02:51:43;;;;;;;;;2.75;2.75;;;;;18.13;60.13;101217.28;2450590;28;44736;-86
2022/06/26 02:52:54;;;;;;;;;2.50;2.50;;;;;18.14;59.87;101211.03;2450951;27;45540;-87
2022/06/26 02:54:04;;;;;;;;;3.00;3.00;;;;;18.15;59.96;101219.88;2461480;27;45423;-86
2022/06/26 02:55:14;;;;;;;;;2.25;2.25;;;;;18.15;59.77;101219.88;2453272;27;45450;-90
2022/06/26 02:56:25;;;;;;;;;1.50;1.00;;;;;18.17;59.95;101221.50;2451250;27;45154;-87
2022/06/26 02:57:35;;;;;;;;;3.00;3.00;;;;;18.16;59.23;101222.44;2457499;27;47512;-89
2022/06/26 02:58:45;;;;;;;;;1.25;1.25;;;;;18.16;59.92;101226.88;2456463;27;44741;-90
2022/06/26 02:59:56;;;;;;;;;3.00;3.00;;;;;18.15;59.63;101222.53;2461389;27;45414;-90
2022/06/26 03:01:06;;;;;;;;;4.00;3.00;;;;;18.17;59.82;101223.28;2453924;27;45182;-89
2022/06/26 03:02:17;;;;;;;;;2.50;1.25;;;;;18.15;59.88;101225.19;2443458;28;47386;-88
2022/06/26 03:03:27;;;;;;;;;2.50;2.50;;;;;18.15;59.53;101236.66;2442724;28;45489;-87
2022/06/26 03:04:37;;;;;;;;;3.00;3.00;;;;;18.14;59.69;101234.97;2450249;28;46207;-89
2022/06/26 03:05:48;;;;;;;;;5.00;3.00;;;;;18.12;59.29;101239.53;2460466;27;45355;-88
2022/06/26 03:06:58;;;;;;;;;2.00;2.00;;;;;18.10;59.86;101225.44;2457585;27;48129;-89
2022/06/26 03:08:08;;;;;;;;;2.00;1.50;;;;;18.09;59.79;101227.25;2443522;28;45268;-86
2022/06/26 03:09:19;;;;;;;;;1.00;1.00;;;;;18.10;59.79;101230.75;2443393;28;48572;-90
2022/06/26 03:10:29;;;;;;;;;2.75;2.75;;;;;18.08;59.37;101229.97;2450926;28;44664;-90
2022/06/26 03:11:41;;;;;;;;;3.00;1.75;;;;;18.09;59.95;101231.72;2450593;28;47004;-91
2022/06/26 03:12:51;;;;;;;;;2.50;2.50;;;;;18.07;59.39;101222.97;2441559;27;45557;-87
2022/06/26 03:14:01;;;;;;;;;1.00;1.00;;;;;18.08;59.66;101219.34;2453197;27;46926;-87
2022/06/26 03:15:12;;;;;;;;;3.25;3.25;;;;;18.08;59.91;101222.00;2457918;27;46983;-87
2022/06/26 03:16:23;;;;;;;;;4.00;4.00;;;;;18.08;59.56;101222.88;2458252;27;46993;-87
2022/06/26 03:17:33;;;;;;;;;5.00;3.00;;;;;18.09;60.16;101227.25;2450909;28;45239;-88
2022/06/26 03:18:43;;;;;;;;;4.00;4.00;;;;;18.09;59.48;101221.06;2460054;27;46019;-89
2022/06/26 03:19:54;;;;;;;;;2.25;2.00;;;;;18.11;59.56;101227.16;2450451;28;45285;-87
2022/06/26 03:21:05;;;;;;;;;4.50;3.00;;;;;18.10;59.62;101225.44;2443170;28;47268;-89
2022/06/26 03:22:15;;;;;;;;;1.50;1.50;;;;;18.11;59.40;101221.84;2450918;28;44740;-88
2022/06/26 03:24:01;;;;;;;;;3.00;1.75;;;;;18.08;59.32;101230.84;2450280;27;48085;-89
2022/06/26 03:24:56;;;;;;;;;2.25;2.25;;;;;18.08;59.43;101228.19;2450506;28;45310;-89
2022/06/26 03:26:06;;;;;;;;;3.00;3.00;;;;;18.07;59.80;101234.47;2451075;27;45290;-89
2022/06/26 03:27:17;;;;;;;;;3.00;3.00;;;;;18.08;60.04;101237.97;2455426;27;45167;-89
2022/06/26 03:28:27;;;;;;;;;1.50;1.50;;;;;18.08;59.50;101240.63;2458552;27;47236;-88
2022/06/26 03:29:37;;;;;;;;;2.00;2.00;;;;;18.08;59.50;101237.97;2450810;28;45168;-87
2022/06/26 03:30:51;;;;;;;;;2.75;2.00;;;;;18.08;59.59;101235.28;2450842;27;45194;-88
2022/06/26 03:32:01;;;;;;;;;2.25;2.25;;;;;18.09;59.80;101235.22;2450509;28;45319;-90
2022/06/26 03:33:11;;;;;;;;;2.75;1.50;;;;;18.09;59.90;101234.38;2450442;27;45536;-88
2022/06/26 03:34:22;;;;;;;;;7.25;3.50;;;;;18.10;59.53;101225.44;2450540;27;44681;-87
2022/06/26 03:35:32;;;;;;;;;4.00;2.50;;;;;18.13;60.14;101229.72;2460034;27;47150;-91
2022/06/26 03:36:42;;;;;;;;;3.00;3.00;;;;;18.13;59.94;101235.03;2453711;27;45562;-91
2022/06/26 03:37:53;;;;;;;;;2.00;2.00;;;;;18.14;59.84;101239.41;2450089;28;47517;-87
2022/06/26 03:39:04;;;;;;;;;2.00;2.00;;;;;18.14;59.58;101239.41;2443355;28;45368;-88
2022/06/26 03:40:14;;;;;;;;;2.00;2.00;;;;;18.14;58.96;101234.09;2443127;28;48050;-87
2022/06/26 03:41:26;;;;;;;;;1.00;1.00;;;;;18.13;59.47;101238.56;2450329;28;45316;-87
2022/06/26 03:42:37;;;;;;;;;2.00;2.00;;;;;18.13;59.20;101229.72;2450525;28;45658;-87
2022/06/26 03:43:48;;;;;;;;;7.50;4.00;;;;;18.12;59.78;101231.53;2451259;27;45233;-86
2022/06/26 03:44:59;;;;;;;;;3.75;3.50;;;;;18.12;59.61;101247.50;2451055;28;45405;-88
2022/06/26 03:46:09;;;;;;;;;3.50;3.00;;;;;18.14;59.16;101261.56;2449947;28;45322;-87
2022/06/26 03:47:20;;;;;;;;;2.50;2.00;;;;;18.12;59.78;101263.47;2450640;28;45253;-87
2022/06/26 03:48:31;;;;;;;;;6.75;3.00;;;;;18.15;59.55;101254.44;2450323;28;45264;-87
2022/06/26 03:49:41;;;;;;;;;2.50;2.50;;;;;18.15;59.59;101243.81;2443272;28;47405;-87
2022/06/26 03:50:51;;;;;;;;;3.50;3.00;;;;;18.14;59.42;101250.06;2443353;28;45206;-88
2022/06/26 03:52:03;;;;;;;;;2.50;2.50;;;;;18.15;59.46;101249.13;2452933;27;48048;-87
2022/06/26 03:53:13;;;;;;;;;3.75;3.00;;;;;18.13;59.11;101257.19;2452649;27;45468;-87
2022/06/26 03:54:25;;;;;;;;;6.25;3.25;;;;;18.13;59.29;101257.19;2452874;27;46598;-86
2022/06/26 03:55:35;;;;;;;;;5.00;3.25;;;;;18.13;59.80;101251.84;2444459;28;45335;-91
2022/06/26 03:56:47;;;;;;;;;3.00;3.00;;;;;18.14;59.27;101253.59;2443163;28;47016;-91
2022/06/26 03:57:57;;;;;;;;;3.25;2.25;;;;;18.13;59.48;101251.84;2450379;28;45168;-90
2022/06/26 03:59:08;;;;;;;;;3.00;3.00;;;;;18.15;59.59;101257.09;2449767;28;47027;-88
2022/06/26 04:00:18;;;;;;;;;3.00;2.50;;;;;18.14;59.45;101260.69;2450528;28;44748;-87
2022/06/26 04:01:28;;;;;;;;;5.00;2.75;;;;;18.13;59.28;101257.19;2450614;27;45451;-83
2022/06/26 04:02:40;;;;;;;;;3.00;2.00;;;;;18.11;59.30;101261.72;2451056;27;45230;-84
2022/06/26 04:03:50;;;;;;;;;4.75;3.00;;;;;18.11;59.33;101265.25;2450726;27;46080;-84
2022/06/26 04:05:01;;;;;;;;;2.00;2.00;;;;;18.13;59.68;101266.94;2455225;27;45172;-84
2022/06/26 04:06:11;;;;;;;;;2.00;2.00;;;;;18.11;59.39;101267.06;2458582;27;46073;-87
2022/06/26 04:07:22;;;;;;;;;4.25;2.25;;;;;18.13;59.45;101275.78;2450564;28;45342;-87
2022/06/26 04:08:32;;;;;;;;;3.00;3.00;;;;;18.11;59.36;101269.72;2450715;27;46152;-86
2022/06/26 04:09:42;;;;;;;;;3.00;3.00;;;;;18.10;59.69;101274.16;2450054;28;44729;-87
2022/06/26 04:10:53;;;;;;;;;5.00;3.50;;;;;18.10;59.29;101290.13;2450324;28;45368;-87
2022/06/26 04:12:03;;;;;;;;;6.50;3.00;;;;;18.11;59.38;101291.84;2450849;27;45301;-87
2022/06/26 04:13:14;;;;;;;;;4.75;2.50;;;;;18.09;59.34;101290.22;2449587;27;46201;-87
2022/06/26 04:14:25;;;;;;;;;2.75;2.00;;;;;18.09;59.36;101299.06;2460417;27;45444;-90
2022/06/26 04:15:36;;;;;;;;;2.00;2.00;;;;;18.09;59.21;101293.75;2454946;27;47651;-90
2022/06/26 04:16:47;;;;;;;;;2.00;2.00;;;;;18.08;59.50;101288.50;2451989;28;45342;-88
2022/06/26 04:17:58;;;;;;;;;6.75;3.00;;;;;18.09;59.91;101292.88;2452527;27;46287;-89
2022/06/26 04:19:08;;;;;;;;;3.25;2.00;;;;;18.08;59.85;101296.47;2451763;28;45456;-89
2022/06/26 04:20:20;;;;;;;;;3.00;3.00;;;;;18.08;59.51;101296.47;2451619;28;47138;-90
2022/06/26 04:21:30;;;;;;;;;3.25;1.75;;;;;18.10;59.46;101300.75;2450608;28;45312;-89
2022/06/26 04:22:40;;;;;;;;;3.00;3.00;;;;;18.10;59.72;101303.44;2452094;27;47052;-89
2022/06/26 04:23:51;;;;;;;;;2.75;2.75;;;;;18.10;59.50;101300.75;2454628;27;44731;-89
2022/06/26 04:25:02;;;;;;;;;5.00;2.50;;;;;18.13;59.99;101296.22;2451453;28;47143;-89
2022/06/26 04:26:13;;;;;;;;;2.00;2.00;;;;;18.16;59.83;101304.03;2442214;28;45185;-88
2022/06/26 04:27:23;;;;;;;;;2.75;2.00;;;;;18.15;59.19;101295.19;2446583;27;45662;-87
2022/06/26 04:28:34;;;;;;;;;2.50;2.50;;;;;18.19;59.19;101298.53;2445839;28;45450;-88
2022/06/26 04:29:44;;;;;;;;;4.50;3.00;;;;;18.18;58.99;101288.84;2452429;28;46655;-87
2022/06/26 04:30:54;;;;;;;;;2.25;2.25;;;;;18.18;59.00;101300.34;2452250;27;45420;-87
2022/06/26 04:32:05;;;;;;;;;2.00;2.00;;;;;18.16;58.73;101299.56;2452331;27;45272;-87
2022/06/26 04:33:16;;;;;;;;;3.00;3.00;;;;;18.13;58.93;101297.06;2455250;27;45398;-86
2022/06/26 04:34:26;;;;;;;;;4.00;2.00;;;;;18.16;59.07;101304.03;2451640;28;47573;-87
2022/06/26 04:35:36;;;;;;;;;2.50;2.50;;;;;18.15;59.33;101292.53;2451925;28;45309;-87
2022/06/26 04:36:47;;;;;;;;;2.75;1.25;;;;;18.16;58.66;101298.72;2452272;27;45249;-88
2022/06/26 04:37:57;;;;;;;;;3.25;2.50;;;;;18.15;59.12;101300.50;2452485;27;45319;-88
2022/06/26 04:39:08;;;;;;;;;4.00;2.00;;;;;18.16;58.79;101304.91;2461396;27;47601;-87
2022/06/26 04:40:18;;;;;;;;;3.00;2.75;;;;;18.15;58.82;101305.81;2459009;27;44633;-87
2022/06/26 04:41:32;;;;;;;;;5.00;3.25;;;;;18.17;58.53;101311.94;2461389;27;47971;-87
2022/06/26 04:42:43;;;;;;;;;4.50;3.25;;;;;18.18;59.41;101310.97;2451681;28;45359;-86
2022/06/26 04:43:53;;;;;;;;;2.00;2.00;;;;;18.18;58.67;101308.31;2451870;27;46816;-87
2022/06/26 04:45:05;;;;;;;;;4.00;4.00;;;;;18.18;58.84;101305.66;2452365;27;45168;-87
2022/06/26 04:46:15;;;;;;;;;3.75;3.00;;;;;18.20;58.64;101308.25;2451326;28;48395;-87
2022/06/26 04:47:26;;;;;;;;;0.50;0.00;;;;;18.20;59.02;101313.56;2452073;28;45262;-87
2022/06/26 04:48:36;;;;;;;;;3.00;3.00;;;;;18.21;59.11;101313.50;2452175;27;45350;-87
2022/06/26 04:49:47;;;;;;;;;1.25;1.25;;;;;18.22;59.19;101307.22;2452395;27;45284;-88
2022/06/26 04:50:58;;;;;;;;;4.75;2.75;;;;;18.24;59.11;101314.28;2452361;28;45370;-89
2022/06/26 04:52:08;;;;;;;;;4.25;4.00;;;;;18.22;58.75;101304.56;2451582;28;45209;-84
2022/06/26 04:53:18;;;;;;;;;3.50;3.25;;;;;18.25;59.54;101319.50;2449381;27;45548;-85
2022/06/26 04:54:29;;;;;;;;;3.00;2.25;;;;;18.25;59.36;101319.50;2442570;28;45161;-85
2022/06/26 04:55:39;;;;;;;;;4.75;2.50;;;;;18.28;59.31;101323.78;2444839;28;47070;-84
2022/06/26 04:56:49;;;;;;;;;4.50;3.00;;;;;18.28;59.68;101316.66;2448149;28;45303;-84
2022/06/26 04:58:00;;;;;;;;;2.00;2.00;;;;;18.29;59.36;101320.19;2451219;28;48066;-84
2022/06/26 04:59:10;;;;;;;;;2.50;2.25;;;;;18.32;58.62;101322.69;2458078;27;44693;-84
2022/06/26 05:00:20;;;;;;;;;2.00;2.00;;;;;18.32;58.77;101314.72;2452130;27;45335;-83
2022/06/26 05:01:32;;;;;;;;;3.50;2.00;;;;;18.34;58.59;101323.44;2451254;28;45182;-84
2022/06/26 05:02:42;;;;;;;;;3.00;2.00;;;;;18.34;58.85;101323.44;2451655;28;45431;-83
2022/06/26 05:03:53;;;;;;;;;3.00;2.75;;;;;18.35;58.41;101319.84;2460066;27;45436;-84
2022/06/26 05:05:04;;;;;;;;;1.00;1.00;;;;;18.36;58.65;101318.03;2451192;28;47225;-84
2022/06/26 05:06:14;;;;;;;;;2.75;2.50;;;;;18.39;58.48;101310.75;2451461;28;45378;-88
2022/06/26 05:07:25;;;;;;;;;3.75;3.25;;;;;18.38;57.98;101313.47;2451573;28;45775;-85
2022/06/26 05:08:35;;;;;;;;;3.00;3.00;;;;;18.41;58.51;101314.19;2452346;27;45244;-86
2022/06/26 05:09:45;;;;;;;;;3.00;2.50;;;;;18.42;58.71;101320.38;2452080;27;46491;-86
2022/06/26 05:10:56;;;;;;;;;7.00;4.00;;;;;18.43;58.65;101322.94;2452336;27;45342;-86
2022/06/26 05:12:07;;;;;;;;;3.00;2.75;;;;;18.43;58.77;101320.25;2452111;27;45320;-86
2022/06/26 05:13:17;;;;;;;;;3.00;2.00;;;;;18.47;58.63;101330.75;2452268;27;45231;-86
2022/06/26 05:14:28;;;;;;;;;3.25;2.50;;;;;18.46;58.56;101326.34;2459292;27;45372;-86
2022/06/26 05:15:38;;;;;;;;;3.00;3.00;;;;;18.47;58.72;101331.56;2457588;27;45245;-88
2022/06/26 05:16:49;;;;;;;;;5.50;3.00;;;;;18.50;58.87;101333.19;2451938;27;46176;-90
2022/06/26 05:17:59;;;;;;;;;6.25;3.50;;;;;18.50;58.95;101331.41;2451577;27;45259;-84
2022/06/26 05:19:13;;;;;;;;;3.00;3.00;;;;;18.54;59.09;101340.09;2451492;28;45277;-91
2022/06/26 05:20:23;;;;;;;;;4.00;3.00;;;;;18.57;59.04;101336.41;2451371;28;45450;-90
2022/06/26 05:21:34;;;;;;;;;4.75;3.25;;;;;18.59;58.80;101329.16;2451421;28;48264;-89
2022/06/26 05:22:44;;;;;;;;;4.25;3.25;;;;;18.58;58.75;101325.66;2441747;28;44776;-91
2022/06/26 05:23:55;;;;;;;;;4.50;4.00;;;;;18.57;59.14;101323.91;2441594;28;48409;-90
2022/06/26 05:25:06;;;;;;;;;2.75;1.75;;;;;18.59;58.98;101330.03;2451217;28;45334;-86
2022/06/26 05:26:16;;;;;;;;;4.75;3.00;;;;;18.63;59.29;101333.38;2448963;28;45449;-85
2022/06/26 05:27:26;;;;;;;;;3.00;3.00;;;;;18.63;59.70;101334.22;2458177;27;45388;-88
2022/06/26 05:28:37;;;;;;;;;5.00;2.25;;;;;18.65;59.74;101329.66;2458210;27;47188;-88
2022/06/26 05:29:48;;;;;;;;;4.25;4.00;;;;;18.69;59.34;101332.16;2451449;28;45293;-88
2022/06/26 05:30:58;;;;;;;;;5.00;3.00;;;;;18.70;59.12;101333.84;2450809;27;48332;-88
2022/06/26 05:32:09;;;;;;;;;3.00;3.00;;;;;18.72;59.12;101337.28;2444302;28;45236;-88
2022/06/26 05:33:19;;;;;;;;;3.00;3.00;;;;;18.73;59.49;101339.00;2453590;27;46060;-86